sensor_id;sensor_type;location;lat;lon;timestamp;temperature;humidity
59660;DHT22;45534;52.690;6.268;2023-04-03T00:02:07;2.70;99.90
59660;DHT22;45534;52.690;6.268;2023-04-03T00:04:33;2.70;99.90
59660;DHT22;45534;52.690;6.268;2023-04-03T00:06:59;2.70;99.90
59660;DHT22;45534;52.690;6.268;2023-04-03T00:09:24;2.70;99.90
59660;DHT22;45534;52.690;6.268;2023-04-03T00:11:50;2.60;99.90
59660;DHT22;45534;52.690;6.268;2023-04-03T00:14:16;2.60;99.90
59660;DHT22;45534;52.690;6.268;2023-04-03T00:16:42;2.60;99.90
59660;DHT22;45534;52.690;6.268;2023-04-03T00:19:07;2.60;99.90
59660;DHT22;45534;52.690;6.268;2023-04-03T00:21:33;2.60;99.90
59660;DHT22;45534;52.690;6.268;2023-04-03T00:23:59;2.60;99.90
59660;DHT22;45534;52.690;6.268;2023-04-03T00:26:25;2.50;99.90
59660;DHT22;45534;52.690;6.268;2023-04-03T00:28:50;2.50;99.90
59660;DHT22;45534;52.690;6.268;2023-04-03T00:31:16;2.50;99.90
59660;DHT22;45534;52.690;6.268;2023-04-03T00:33:43;2.50;99.90
59660;DHT22;45534;52.690;6.268;2023-04-03T00:36:10;2.50;99.90
59660;DHT22;45534;52.690;6.268;2023-04-03T00:38:36;2.50;99.90
59660;DHT22;45534;52.690;6.268;2023-04-03T00:41:02;2.40;99.90
59660;DHT22;45534;52.690;6.268;2023-04-03T00:43:28;2.40;99.90
59660;DHT22;45534;52.690;6.268;2023-04-03T00:45:56;2.40;99.90
59660;DHT22;45534;52.690;6.268;2023-04-03T00:48:39;2.40;99.90
59660;DHT22;45534;52.690;6.268;2023-04-03T00:51:08;2.40;99.90
59660;DHT22;45534;52.690;6.268;2023-04-03T00:54:00;2.40;99.90
59660;DHT22;45534;52.690;6.268;2023-04-03T00:56:29;2.40;99.90
59660;DHT22;45534;52.690;6.268;2023-04-03T01:01:28;2.30;99.90
59660;DHT22;45534;52.690;6.268;2023-04-03T01:03:54;2.20;99.90
59660;DHT22;45534;52.690;6.268;2023-04-03T01:06:31;2.20;99.90
59660;DHT22;45534;52.690;6.268;2023-04-03T01:08:59;2.20;99.90
59660;DHT22;45534;52.690;6.268;2023-04-03T01:11:25;2.10;99.90
59660;DHT22;45534;52.690;6.268;2023-04-03T01:13:51;2.10;99.90
59660;DHT22;45534;52.690;6.268;2023-04-03T01:16:17;2.00;99.90
59660;DHT22;45534;52.690;6.268;2023-04-03T01:18:44;2.00;99.90
59660;DHT22;45534;52.690;6.268;2023-04-03T01:24:20;1.90;99.90
59660;DHT22;45534;52.690;6.268;2023-04-03T01:26:48;1.90;99.90
59660;DHT22;45534;52.690;6.268;2023-04-03T01:29:14;1.90;99.90
59660;DHT22;45534;52.690;6.268;2023-04-03T01:31:47;1.80;99.90
59660;DHT22;45534;52.690;6.268;2023-04-03T01:34:13;1.80;99.90
59660;DHT22;45534;52.690;6.268;2023-04-03T01:36:40;1.70;99.90
59660;DHT22;45534;52.690;6.268;2023-04-03T01:39:06;1.70;99.90
59660;DHT22;45534;52.690;6.268;2023-04-03T01:41:32;1.70;99.90
59660;DHT22;45534;52.690;6.268;2023-04-03T01:43:58;1.60;99.90
59660;DHT22;45534;52.690;6.268;2023-04-03T01:46:24;1.60;99.90
59660;DHT22;45534;52.690;6.268;2023-04-03T01:48:50;1.60;99.90
59660;DHT22;45534;52.690;6.268;2023-04-03T01:51:15;1.50;99.90
59660;DHT22;45534;52.690;6.268;2023-04-03T01:53:41;1.60;99.90
59660;DHT22;45534;52.690;6.268;2023-04-03T01:56:07;1.50;99.90
59660;DHT22;45534;52.690;6.268;2023-04-03T01:58:33;1.50;99.90
59660;DHT22;45534;52.690;6.268;2023-04-03T02:00:59;1.50;99.90
59660;DHT22;45534;52.690;6.268;2023-04-03T02:03:25;1.50;99.90
59660;DHT22;45534;52.690;6.268;2023-04-03T02:05:50;1.40;99.90
59660;DHT22;45534;52.690;6.268;2023-04-03T02:08:16;1.50;99.90
59660;DHT22;45534;52.690;6.268;2023-04-03T02:10:49;1.50;99.90
59660;DHT22;45534;52.690;6.268;2023-04-03T02:13:16;1.50;99.90
59660;DHT22;45534;52.690;6.268;2023-04-03T02:15:41;1.40;99.90
59660;DHT22;45534;52.690;6.268;2023-04-03T02:18:07;1.40;99.90
59660;DHT22;45534;52.690;6.268;2023-04-03T02:20:33;1.40;99.90
59660;DHT22;45534;52.690;6.268;2023-04-03T02:22:59;1.40;99.90
59660;DHT22;45534;52.690;6.268;2023-04-03T02:25:25;1.40;99.90
59660;DHT22;45534;52.690;6.268;2023-04-03T02:27:51;1.40;99.90
59660;DHT22;45534;52.690;6.268;2023-04-03T02:30:17;1.30;99.90
59660;DHT22;45534;52.690;6.268;2023-04-03T02:32:43;1.30;99.90
59660;DHT22;45534;52.690;6.268;2023-04-03T02:35:10;1.30;99.90
59660;DHT22;45534;52.690;6.268;2023-04-03T02:37:36;1.30;99.90
59660;DHT22;45534;52.690;6.268;2023-04-03T02:40:02;1.30;99.90
59660;DHT22;45534;52.690;6.268;2023-04-03T02:42:29;1.30;99.90
59660;DHT22;45534;52.690;6.268;2023-04-03T02:44:54;1.30;99.90
59660;DHT22;45534;52.690;6.268;2023-04-03T02:47:20;1.30;99.90
59660;DHT22;45534;52.690;6.268;2023-04-03T02:49:46;1.30;99.90
59660;DHT22;45534;52.690;6.268;2023-04-03T02:52:15;1.20;99.90
59660;DHT22;45534;52.690;6.268;2023-04-03T02:54:40;1.30;99.90
59660;DHT22;45534;52.690;6.268;2023-04-03T02:57:06;1.30;99.90
59660;DHT22;45534;52.690;6.268;2023-04-03T02:59:37;1.30;99.90
59660;DHT22;45534;52.690;6.268;2023-04-03T03:02:07;1.20;99.90
59660;DHT22;45534;52.690;6.268;2023-04-03T03:04:33;1.20;99.90
59660;DHT22;45534;52.690;6.268;2023-04-03T03:06:59;1.20;99.90
59660;DHT22;45534;52.690;6.268;2023-04-03T03:09:24;1.20;99.90
59660;DHT22;45534;52.690;6.268;2023-04-03T03:11:52;1.10;99.90
59660;DHT22;45534;52.690;6.268;2023-04-03T03:14:17;1.10;99.90
59660;DHT22;45534;52.690;6.268;2023-04-03T03:16:43;1.10;99.90
59660;DHT22;45534;52.690;6.268;2023-04-03T03:19:09;1.10;99.90
59660;DHT22;45534;52.690;6.268;2023-04-03T03:21:35;1.10;99.90
59660;DHT22;45534;52.690;6.268;2023-04-03T03:24:01;1.00;99.90
59660;DHT22;45534;52.690;6.268;2023-04-03T03:26:27;1.00;99.90
59660;DHT22;45534;52.690;6.268;2023-04-03T03:28:52;1.00;99.90
59660;DHT22;45534;52.690;6.268;2023-04-03T03:31:18;1.00;99.90
59660;DHT22;45534;52.690;6.268;2023-04-03T03:33:44;1.00;99.90
59660;DHT22;45534;52.690;6.268;2023-04-03T03:36:10;1.00;99.90
59660;DHT22;45534;52.690;6.268;2023-04-03T03:38:36;0.90;99.90
59660;DHT22;45534;52.690;6.268;2023-04-03T03:41:02;0.90;99.90
59660;DHT22;45534;52.690;6.268;2023-04-03T03:43:28;0.90;99.90
59660;DHT22;45534;52.690;6.268;2023-04-03T03:45:54;0.90;99.90
59660;DHT22;45534;52.690;6.268;2023-04-03T03:48:21;0.80;99.90
59660;DHT22;45534;52.690;6.268;2023-04-03T03:50:47;0.80;99.90
59660;DHT22;45534;52.690;6.268;2023-04-03T03:53:13;0.80;99.90
59660;DHT22;45534;52.690;6.268;2023-04-03T03:55:40;0.80;99.90
59660;DHT22;45534;52.690;6.268;2023-04-03T03:58:06;0.70;99.90
59660;DHT22;45534;52.690;6.268;2023-04-03T04:00:32;0.70;99.90
59660;DHT22;45534;52.690;6.268;2023-04-03T04:02:58;0.70;99.90
59660;DHT22;45534;52.690;6.268;2023-04-03T04:05:24;0.60;99.90
59660;DHT22;45534;52.690;6.268;2023-04-03T04:07:50;0.60;99.90
59660;DHT22;45534;52.690;6.268;2023-04-03T04:10:16;0.60;99.90
59660;DHT22;45534;52.690;6.268;2023-04-03T04:12:42;0.50;99.90
59660;DHT22;45534;52.690;6.268;2023-04-03T04:15:08;0.50;99.90
59660;DHT22;45534;52.690;6.268;2023-04-03T04:17:34;0.50;99.90
59660;DHT22;45534;52.690;6.268;2023-04-03T04:20:01;0.50;99.90
59660;DHT22;45534;52.690;6.268;2023-04-03T04:22:28;0.40;99.90
59660;DHT22;45534;52.690;6.268;2023-04-03T04:24:54;0.40;99.90
59660;DHT22;45534;52.690;6.268;2023-04-03T04:27:20;0.30;99.90
59660;DHT22;45534;52.690;6.268;2023-04-03T04:29:45;0.40;99.90
59660;DHT22;45534;52.690;6.268;2023-04-03T04:32:11;0.30;99.90
59660;DHT22;45534;52.690;6.268;2023-04-03T04:34:37;0.30;99.90
59660;DHT22;45534;52.690;6.268;2023-04-03T04:37:02;0.20;99.90
59660;DHT22;45534;52.690;6.268;2023-04-03T04:39:28;0.20;99.90
59660;DHT22;45534;52.690;6.268;2023-04-03T04:41:54;0.20;99.90
59660;DHT22;45534;52.690;6.268;2023-04-03T04:44:20;0.10;99.90
59660;DHT22;45534;52.690;6.268;2023-04-03T04:46:46;0.10;99.90
59660;DHT22;45534;52.690;6.268;2023-04-03T04:49:11;0.10;99.90
59660;DHT22;45534;52.690;6.268;2023-04-03T04:51:37;0.10;99.90
59660;DHT22;45534;52.690;6.268;2023-04-03T04:54:03;0.10;99.90
59660;DHT22;45534;52.690;6.268;2023-04-03T04:56:28;0.00;99.90
59660;DHT22;45534;52.690;6.268;2023-04-03T04:58:54;0.10;99.90
59660;DHT22;45534;52.690;6.268;2023-04-03T05:01:20;0.10;99.90
59660;DHT22;45534;52.690;6.268;2023-04-03T05:03:47;0.10;99.90
59660;DHT22;45534;52.690;6.268;2023-04-03T05:06:13;0.10;99.90
59660;DHT22;45534;52.690;6.268;2023-04-03T05:08:39;0.10;99.90
59660;DHT22;45534;52.690;6.268;2023-04-03T05:11:05;0.10;99.90
59660;DHT22;45534;52.690;6.268;2023-04-03T05:13:30;0.00;99.90
59660;DHT22;45534;52.690;6.268;2023-04-03T05:15:56;0.00;99.90
59660;DHT22;45534;52.690;6.268;2023-04-03T05:18:22;0.00;99.90
59660;DHT22;45534;52.690;6.268;2023-04-03T05:20:50;0.00;99.90
59660;DHT22;45534;52.690;6.268;2023-04-03T05:23:16;0.00;99.90
59660;DHT22;45534;52.690;6.268;2023-04-03T05:25:42;0.00;99.90
59660;DHT22;45534;52.690;6.268;2023-04-03T05:28:11;0.00;99.90
59660;DHT22;45534;52.690;6.268;2023-04-03T05:30:37;0.00;99.90
59660;DHT22;45534;52.690;6.268;2023-04-03T05:33:02;0.00;99.90
59660;DHT22;45534;52.690;6.268;2023-04-03T05:35:28;0.00;99.90
59660;DHT22;45534;52.690;6.268;2023-04-03T05:37:54;0.00;99.90
59660;DHT22;45534;52.690;6.268;2023-04-03T05:40:20;0.10;99.90
59660;DHT22;45534;52.690;6.268;2023-04-03T05:42:45;0.10;99.90
59660;DHT22;45534;52.690;6.268;2023-04-03T05:45:11;0.10;99.90
59660;DHT22;45534;52.690;6.268;2023-04-03T05:47:37;0.10;99.90
59660;DHT22;45534;52.690;6.268;2023-04-03T05:50:03;0.20;99.90
59660;DHT22;45534;52.690;6.268;2023-04-03T05:52:31;0.20;99.90
59660;DHT22;45534;52.690;6.268;2023-04-03T05:54:58;0.20;99.90
59660;DHT22;45534;52.690;6.268;2023-04-03T05:57:24;0.30;99.90
59660;DHT22;45534;52.690;6.268;2023-04-03T05:59:50;0.30;99.90
59660;DHT22;45534;52.690;6.268;2023-04-03T06:02:18;0.40;99.90
59660;DHT22;45534;52.690;6.268;2023-04-03T06:04:44;0.40;99.90
59660;DHT22;45534;52.690;6.268;2023-04-03T06:07:15;0.50;99.90
59660;DHT22;45534;52.690;6.268;2023-04-03T06:09:41;0.60;99.90
59660;DHT22;45534;52.690;6.268;2023-04-03T06:12:07;0.70;99.90
59660;DHT22;45534;52.690;6.268;2023-04-03T06:14:33;0.70;99.90
59660;DHT22;45534;52.690;6.268;2023-04-03T06:16:59;0.80;99.90
59660;DHT22;45534;52.690;6.268;2023-04-03T06:19:25;0.90;99.90
59660;DHT22;45534;52.690;6.268;2023-04-03T06:21:51;1.00;99.90
59660;DHT22;45534;52.690;6.268;2023-04-03T06:24:18;1.00;99.90
59660;DHT22;45534;52.690;6.268;2023-04-03T06:26:44;1.10;99.90
59660;DHT22;45534;52.690;6.268;2023-04-03T06:29:09;1.20;99.90
59660;DHT22;45534;52.690;6.268;2023-04-03T06:31:35;1.20;99.90
59660;DHT22;45534;52.690;6.268;2023-04-03T06:34:04;1.30;99.90
59660;DHT22;45534;52.690;6.268;2023-04-03T06:36:31;1.40;99.90
59660;DHT22;45534;52.690;6.268;2023-04-03T06:38:57;1.50;99.90
59660;DHT22;45534;52.690;6.268;2023-04-03T06:41:23;1.60;99.90
59660;DHT22;45534;52.690;6.268;2023-04-03T06:43:49;1.70;99.90
59660;DHT22;45534;52.690;6.268;2023-04-03T06:46:17;1.80;99.90
59660;DHT22;45534;52.690;6.268;2023-04-03T06:48:43;1.80;99.90
59660;DHT22;45534;52.690;6.268;2023-04-03T06:51:21;1.90;99.90
59660;DHT22;45534;52.690;6.268;2023-04-03T06:53:48;2.00;99.90
59660;DHT22;45534;52.690;6.268;2023-04-03T06:56:14;2.10;99.90
59660;DHT22;45534;52.690;6.268;2023-04-03T06:58:40;2.10;99.90
59660;DHT22;45534;52.690;6.268;2023-04-03T07:01:08;2.20;99.90
59660;DHT22;45534;52.690;6.268;2023-04-03T07:03:35;2.30;99.90
59660;DHT22;45534;52.690;6.268;2023-04-03T07:06:01;2.40;99.90
59660;DHT22;45534;52.690;6.268;2023-04-03T07:08:26;2.50;99.90
59660;DHT22;45534;52.690;6.268;2023-04-03T07:10:52;2.50;99.90
59660;DHT22;45534;52.690;6.268;2023-04-03T07:13:18;2.60;99.90
59660;DHT22;45534;52.690;6.268;2023-04-03T07:15:43;2.70;99.90
59660;DHT22;45534;52.690;6.268;2023-04-03T07:18:09;2.80;99.90
59660;DHT22;45534;52.690;6.268;2023-04-03T07:20:35;2.90;99.90
59660;DHT22;45534;52.690;6.268;2023-04-03T07:23:01;3.00;99.90
59660;DHT22;45534;52.690;6.268;2023-04-03T07:25:28;3.10;99.90
59660;DHT22;45534;52.690;6.268;2023-04-03T07:27:54;3.20;99.90
59660;DHT22;45534;52.690;6.268;2023-04-03T07:30:20;3.30;99.90
59660;DHT22;45534;52.690;6.268;2023-04-03T07:32:46;3.30;99.90
59660;DHT22;45534;52.690;6.268;2023-04-03T07:35:12;3.40;99.90
59660;DHT22;45534;52.690;6.268;2023-04-03T07:37:38;3.50;99.90
59660;DHT22;45534;52.690;6.268;2023-04-03T07:40:05;3.60;99.90
59660;DHT22;45534;52.690;6.268;2023-04-03T07:42:31;3.70;99.90
59660;DHT22;45534;52.690;6.268;2023-04-03T07:44:57;3.80;99.90
59660;DHT22;45534;52.690;6.268;2023-04-03T07:47:22;3.90;99.90
59660;DHT22;45534;52.690;6.268;2023-04-03T07:49:48;4.00;99.90
59660;DHT22;45534;52.690;6.268;2023-04-03T07:52:14;4.00;99.90
59660;DHT22;45534;52.690;6.268;2023-04-03T07:54:41;4.10;99.90
59660;DHT22;45534;52.690;6.268;2023-04-03T07:57:07;4.20;99.90
59660;DHT22;45534;52.690;6.268;2023-04-03T07:59:33;4.30;99.90
59660;DHT22;45534;52.690;6.268;2023-04-03T08:01:59;4.40;99.90
59660;DHT22;45534;52.690;6.268;2023-04-03T08:04:25;4.40;99.90
59660;DHT22;45534;52.690;6.268;2023-04-03T08:06:51;4.50;99.90
59660;DHT22;45534;52.690;6.268;2023-04-03T08:09:18;4.50;99.90
59660;DHT22;45534;52.690;6.268;2023-04-03T08:11:44;4.60;99.90
59660;DHT22;45534;52.690;6.268;2023-04-03T08:14:11;4.70;99.90
59660;DHT22;45534;52.690;6.268;2023-04-03T08:16:45;4.80;99.90
59660;DHT22;45534;52.690;6.268;2023-04-03T08:19:11;4.80;99.90
59660;DHT22;45534;52.690;6.268;2023-04-03T08:21:40;4.90;99.90
59660;DHT22;45534;52.690;6.268;2023-04-03T08:24:07;5.00;99.90
59660;DHT22;45534;52.690;6.268;2023-04-03T08:26:34;5.10;99.90
59660;DHT22;45534;52.690;6.268;2023-04-03T08:29:00;5.20;99.90
59660;DHT22;45534;52.690;6.268;2023-04-03T08:31:26;5.20;99.90
59660;DHT22;45534;52.690;6.268;2023-04-03T08:33:51;5.30;99.90
59660;DHT22;45534;52.690;6.268;2023-04-03T08:36:20;5.40;99.90
59660;DHT22;45534;52.690;6.268;2023-04-03T08:38:47;5.40;99.90
59660;DHT22;45534;52.690;6.268;2023-04-03T08:41:34;5.50;99.90
59660;DHT22;45534;52.690;6.268;2023-04-03T08:44:23;5.60;99.90
59660;DHT22;45534;52.690;6.268;2023-04-03T08:49:52;5.80;99.90
59660;DHT22;45534;52.690;6.268;2023-04-03T08:54:54;6.00;99.90
59660;DHT22;45534;52.690;6.268;2023-04-03T08:57:40;6.10;99.90
59660;DHT22;45534;52.690;6.268;2023-04-03T09:00:21;6.10;99.90
59660;DHT22;45534;52.690;6.268;2023-04-03T09:02:53;6.20;99.90
59660;DHT22;45534;52.690;6.268;2023-04-03T09:05:40;6.30;99.90
59660;DHT22;45534;52.690;6.268;2023-04-03T09:10:46;6.40;99.90
59660;DHT22;45534;52.690;6.268;2023-04-03T09:16:20;6.60;99.90
59660;DHT22;45534;52.690;6.268;2023-04-03T09:18:54;6.60;99.90
59660;DHT22;45534;52.690;6.268;2023-04-03T09:21:38;6.80;99.90
59660;DHT22;45534;52.690;6.268;2023-04-03T09:24:05;6.90;99.90
59660;DHT22;45534;52.690;6.268;2023-04-03T09:26:53;7.00;99.90
59660;DHT22;45534;52.690;6.268;2023-04-03T09:29:22;7.00;99.90
59660;DHT22;45534;52.690;6.268;2023-04-03T09:31:52;7.10;99.90
59660;DHT22;45534;52.690;6.268;2023-04-03T09:34:25;7.20;99.90
59660;DHT22;45534;52.690;6.268;2023-04-03T09:36:57;7.30;99.90
59660;DHT22;45534;52.690;6.268;2023-04-03T09:39:26;7.40;99.90
59660;DHT22;45534;52.690;6.268;2023-04-03T09:44:33;7.60;99.90
59660;DHT22;45534;52.690;6.268;2023-04-03T09:46:59;7.70;99.90
59660;DHT22;45534;52.690;6.268;2023-04-03T09:49:25;7.80;99.90
59660;DHT22;45534;52.690;6.268;2023-04-03T09:51:51;7.90;99.90
59660;DHT22;45534;52.690;6.268;2023-04-03T09:54:37;8.10;99.90
59660;DHT22;45534;52.690;6.268;2023-04-03T09:57:12;8.20;99.90
59660;DHT22;45534;52.690;6.268;2023-04-03T10:00:03;8.30;99.90
59660;DHT22;45534;52.690;6.268;2023-04-03T10:05:03;8.40;99.50
59660;DHT22;45534;52.690;6.268;2023-04-03T10:07:38;8.50;99.90
59660;DHT22;45534;52.690;6.268;2023-04-03T10:10:21;8.60;99.10
59660;DHT22;45534;52.690;6.268;2023-04-03T10:13:07;8.70;96.80
59660;DHT22;45534;52.690;6.268;2023-04-03T10:18:32;8.80;96.60
59660;DHT22;45534;52.690;6.268;2023-04-03T10:21:45;8.90;95.90
59660;DHT22;45534;52.690;6.268;2023-04-03T10:27:19;8.90;95.60
59660;DHT22;45534;52.690;6.268;2023-04-03T10:38:43;9.40;96.10
59660;DHT22;45534;52.690;6.268;2023-04-03T10:47:20;9.60;95.90
59660;DHT22;45534;52.690;6.268;2023-04-03T10:53:11;9.80;95.50
59660;DHT22;45534;52.690;6.268;2023-04-03T10:55:43;9.90;96.40
59660;DHT22;45534;52.690;6.268;2023-04-03T10:58:48;10.10;98.50
59660;DHT22;45534;52.690;6.268;2023-04-03T11:01:20;10.00;95.40
59660;DHT22;45534;52.690;6.268;2023-04-03T11:03:54;10.00;96.30
59660;DHT22;45534;52.690;6.268;2023-04-03T11:06:22;10.00;92.50
59660;DHT22;45534;52.690;6.268;2023-04-03T11:08:58;10.10;93.80
59660;DHT22;45534;52.690;6.268;2023-04-03T11:11:33;10.10;94.60
59660;DHT22;45534;52.690;6.268;2023-04-03T11:22:41;10.50;93.90
59660;DHT22;45534;52.690;6.268;2023-04-03T11:25:23;10.70;94.00
59660;DHT22;45534;52.690;6.268;2023-04-03T11:28:02;11.00;95.10
59660;DHT22;45534;52.690;6.268;2023-04-03T11:33:47;11.40;95.20
59660;DHT22;45534;52.690;6.268;2023-04-03T11:38:45;11.60;96.00
59660;DHT22;45534;52.690;6.268;2023-04-03T11:41:13;11.80;97.90
59660;DHT22;45534;52.690;6.268;2023-04-03T11:44:06;11.70;95.60
59660;DHT22;45534;52.690;6.268;2023-04-03T11:49:59;11.70;93.70
59660;DHT22;45534;52.690;6.268;2023-04-03T12:06:42;12.60;98.40
59660;DHT22;45534;52.690;6.268;2023-04-03T12:16:32;13.30;96.30
59660;DHT22;45534;52.690;6.268;2023-04-03T12:19:33;13.30;97.50
59660;DHT22;45534;52.690;6.268;2023-04-03T12:29:27;13.40;99.10
59660;DHT22;45534;52.690;6.268;2023-04-03T12:32:17;13.50;93.80
59660;DHT22;45534;52.690;6.268;2023-04-03T12:40:36;13.30;95.30
59660;DHT22;45534;52.690;6.268;2023-04-03T12:48:49;14.00;77.40
59660;DHT22;45534;52.690;6.268;2023-04-03T12:51:35;13.90;81.90
59660;DHT22;45534;52.690;6.268;2023-04-03T12:54:12;13.80;80.70
59660;DHT22;45534;52.690;6.268;2023-04-03T12:56:39;13.90;78.60
59660;DHT22;45534;52.690;6.268;2023-04-03T12:59:20;14.20;83.40
59660;DHT22;45534;52.690;6.268;2023-04-03T13:01:53;14.30;82.80
59660;DHT22;45534;52.690;6.268;2023-04-03T13:04:20;14.40;74.60
59660;DHT22;45534;52.690;6.268;2023-04-03T13:06:45;14.60;89.50
59660;DHT22;45534;52.690;6.268;2023-04-03T13:09:25;14.70;78.30
59660;DHT22;45534;52.690;6.268;2023-04-03T13:12:12;14.80;77.30
59660;DHT22;45534;52.690;6.268;2023-04-03T13:14:39;15.00;74.30
59660;DHT22;45534;52.690;6.268;2023-04-03T13:17:16;15.20;79.40
59660;DHT22;45534;52.690;6.268;2023-04-03T13:19:43;15.20;72.90
59660;DHT22;45534;52.690;6.268;2023-04-03T13:24:59;15.40;62.80
59660;DHT22;45534;52.690;6.268;2023-04-03T13:27:30;15.50;65.50
59660;DHT22;45534;52.690;6.268;2023-04-03T13:29:58;15.70;63.90
59660;DHT22;45534;52.690;6.268;2023-04-03T13:32:26;16.00;62.80
59660;DHT22;45534;52.690;6.268;2023-04-03T13:34:53;16.20;59.50
59660;DHT22;45534;52.690;6.268;2023-04-03T13:37:22;16.30;60.90
59660;DHT22;45534;52.690;6.268;2023-04-03T13:40:11;16.70;60.30
59660;DHT22;45534;52.690;6.268;2023-04-03T13:42:41;17.00;54.10
59660;DHT22;45534;52.690;6.268;2023-04-03T13:45:23;17.00;54.80
59660;DHT22;45534;52.690;6.268;2023-04-03T13:48:07;16.90;52.90
59660;DHT22;45534;52.690;6.268;2023-04-03T13:50:33;16.80;53.10
59660;DHT22;45534;52.690;6.268;2023-04-03T13:53:14;16.80;53.70
59660;DHT22;45534;52.690;6.268;2023-04-03T13:56:16;16.90;53.70
59660;DHT22;45534;52.690;6.268;2023-04-03T13:58:54;17.10;52.70
59660;DHT22;45534;52.690;6.268;2023-04-03T14:01:21;17.20;52.80
59660;DHT22;45534;52.690;6.268;2023-04-03T14:04:16;17.20;52.00
59660;DHT22;45534;52.690;6.268;2023-04-03T14:06:42;17.40;50.40
59660;DHT22;45534;52.690;6.268;2023-04-03T14:09:08;17.70;51.80
59660;DHT22;45534;52.690;6.268;2023-04-03T14:11:34;17.90;50.50
59660;DHT22;45534;52.690;6.268;2023-04-03T14:14:06;18.10;50.00
59660;DHT22;45534;52.690;6.268;2023-04-03T14:16:39;18.40;50.20
59660;DHT22;45534;52.690;6.268;2023-04-03T14:19:06;18.70;49.10
59660;DHT22;45534;52.690;6.268;2023-04-03T14:21:31;18.80;48.70
59660;DHT22;45534;52.690;6.268;2023-04-03T14:23:57;18.80;48.20
59660;DHT22;45534;52.690;6.268;2023-04-03T14:26:24;18.60;46.90
59660;DHT22;45534;52.690;6.268;2023-04-03T14:28:53;18.50;46.80
59660;DHT22;45534;52.690;6.268;2023-04-03T14:31:21;18.30;46.60
59660;DHT22;45534;52.690;6.268;2023-04-03T14:33:48;18.20;46.50
59660;DHT22;45534;52.690;6.268;2023-04-03T14:36:17;18.10;45.80
59660;DHT22;45534;52.690;6.268;2023-04-03T14:38:44;18.30;46.10
59660;DHT22;45534;52.690;6.268;2023-04-03T14:41:13;18.60;46.10
59660;DHT22;45534;52.690;6.268;2023-04-03T14:43:39;19.00;46.50
59660;DHT22;45534;52.690;6.268;2023-04-03T14:46:32;19.00;45.90
59660;DHT22;45534;52.690;6.268;2023-04-03T14:48:55;19.20;45.80
59660;DHT22;45534;52.690;6.268;2023-04-03T14:51:21;19.40;45.40
59660;DHT22;45534;52.690;6.268;2023-04-03T14:53:47;19.50;44.20
59660;DHT22;45534;52.690;6.268;2023-04-03T14:56:27;19.30;44.10
59660;DHT22;45534;52.690;6.268;2023-04-03T14:58:59;19.20;44.90
59660;DHT22;45534;52.690;6.268;2023-04-03T15:01:27;19.60;44.80
59660;DHT22;45534;52.690;6.268;2023-04-03T15:03:53;19.50;42.90
59660;DHT22;45534;52.690;6.268;2023-04-03T15:06:19;19.00;43.20
59660;DHT22;45534;52.690;6.268;2023-04-03T15:08:46;19.10;43.70
59660;DHT22;45534;52.690;6.268;2023-04-03T15:11:12;19.20;44.20
59660;DHT22;45534;52.690;6.268;2023-04-03T15:13:39;19.20;43.20
59660;DHT22;45534;52.690;6.268;2023-04-03T15:16:10;19.10;42.90
59660;DHT22;45534;52.690;6.268;2023-04-03T15:18:38;19.20;43.40
59660;DHT22;45534;52.690;6.268;2023-04-03T15:21:04;18.80;42.00
59660;DHT22;45534;52.690;6.268;2023-04-03T15:23:30;17.30;41.50
59660;DHT22;45534;52.690;6.268;2023-04-03T15:25:56;16.50;43.20
59660;DHT22;45534;52.690;6.268;2023-04-03T15:28:43;15.50;43.20
59660;DHT22;45534;52.690;6.268;2023-04-03T15:31:09;15.70;44.30
59660;DHT22;45534;52.690;6.268;2023-04-03T15:33:35;16.00;45.90
59660;DHT22;45534;52.690;6.268;2023-04-03T15:36:02;15.80;45.30
59660;DHT22;45534;52.690;6.268;2023-04-03T15:38:28;15.60;42.60
59660;DHT22;45534;52.690;6.268;2023-04-03T15:40:55;15.80;46.40
59660;DHT22;45534;52.690;6.268;2023-04-03T15:43:21;16.20;47.30
59660;DHT22;45534;52.690;6.268;2023-04-03T15:45:47;16.60;47.10
59660;DHT22;45534;52.690;6.268;2023-04-03T15:48:13;16.90;47.10
59660;DHT22;45534;52.690;6.268;2023-04-03T15:50:40;16.80;44.60
59660;DHT22;45534;52.690;6.268;2023-04-03T15:53:06;16.50;45.80
59660;DHT22;45534;52.690;6.268;2023-04-03T15:55:34;16.10;46.40
59660;DHT22;45534;52.690;6.268;2023-04-03T15:58:00;15.70;47.50
59660;DHT22;45534;52.690;6.268;2023-04-03T16:00:27;15.20;47.00
59660;DHT22;45534;52.690;6.268;2023-04-03T16:02:59;14.60;45.30
59660;DHT22;45534;52.690;6.268;2023-04-03T16:05:25;13.60;46.60
59660;DHT22;45534;52.690;6.268;2023-04-03T16:07:51;12.60;46.70
59660;DHT22;45534;52.690;6.268;2023-04-03T16:10:17;11.70;48.00
59660;DHT22;45534;52.690;6.268;2023-04-03T16:12:44;11.10;48.20
59660;DHT22;45534;52.690;6.268;2023-04-03T16:15:11;10.70;49.90
59660;DHT22;45534;52.690;6.268;2023-04-03T16:17:38;10.50;51.00
59660;DHT22;45534;52.690;6.268;2023-04-03T16:20:06;10.50;52.20
59660;DHT22;45534;52.690;6.268;2023-04-03T16:22:33;10.40;51.60
59660;DHT22;45534;52.690;6.268;2023-04-03T16:24:59;10.20;50.80
59660;DHT22;45534;52.690;6.268;2023-04-03T16:27:25;10.00;51.60
59660;DHT22;45534;52.690;6.268;2023-04-03T16:29:54;10.00;53.10
59660;DHT22;45534;52.690;6.268;2023-04-03T16:32:21;9.90;52.30
59660;DHT22;45534;52.690;6.268;2023-04-03T16:34:48;9.90;53.60
59660;DHT22;45534;52.690;6.268;2023-04-03T16:37:14;9.90;54.10
59660;DHT22;45534;52.690;6.268;2023-04-03T16:39:40;9.90;54.80
59660;DHT22;45534;52.690;6.268;2023-04-03T16:42:06;9.90;54.10
59660;DHT22;45534;52.690;6.268;2023-04-03T16:44:31;9.90;54.80
59660;DHT22;45534;52.690;6.268;2023-04-03T16:46:57;9.90;55.00
59660;DHT22;45534;52.690;6.268;2023-04-03T16:49:24;9.90;55.60
59660;DHT22;45534;52.690;6.268;2023-04-03T16:51:49;10.00;55.70
59660;DHT22;45534;52.690;6.268;2023-04-03T16:54:15;9.90;54.60
59660;DHT22;45534;52.690;6.268;2023-04-03T16:56:41;9.80;56.20
59660;DHT22;45534;52.690;6.268;2023-04-03T16:59:07;9.80;53.50
59660;DHT22;45534;52.690;6.268;2023-04-03T17:01:32;9.60;55.30
59660;DHT22;45534;52.690;6.268;2023-04-03T17:03:58;9.50;54.10
59660;DHT22;45534;52.690;6.268;2023-04-03T17:06:24;9.40;55.30
59660;DHT22;45534;52.690;6.268;2023-04-03T17:08:51;9.40;55.90
59660;DHT22;45534;52.690;6.268;2023-04-03T17:11:18;9.30;56.10
59660;DHT22;45534;52.690;6.268;2023-04-03T17:13:44;9.20;57.20
59660;DHT22;45534;52.690;6.268;2023-04-03T17:16:13;9.20;57.50
59660;DHT22;45534;52.690;6.268;2023-04-03T17:18:40;9.20;57.60
59660;DHT22;45534;52.690;6.268;2023-04-03T17:21:06;9.20;57.70
59660;DHT22;45534;52.690;6.268;2023-04-03T17:23:34;9.10;57.70
59660;DHT22;45534;52.690;6.268;2023-04-03T17:26:03;9.00;58.30
59660;DHT22;45534;52.690;6.268;2023-04-03T17:28:29;9.00;58.90
59660;DHT22;45534;52.690;6.268;2023-04-03T17:30:57;9.00;59.30
59660;DHT22;45534;52.690;6.268;2023-04-03T17:33:24;8.90;59.80
59660;DHT22;45534;52.690;6.268;2023-04-03T17:35:50;8.90;60.40
59660;DHT22;45534;52.690;6.268;2023-04-03T17:38:15;8.90;60.60
59660;DHT22;45534;52.690;6.268;2023-04-03T17:40:41;8.80;60.90